Weather at Sølager Airfiield

Public forecast

Using degrees Celsius for public forecast. Weather courtesy of forecast.io.

Closest aviation weather report (METAR) to Sølager Airfiield

Closest report is Copenhagen Roskilde Airport, 23.0 nm (42.5 km) SSE.

2024/05/21 01:20 (retrieved 15 minutes ago)

EKRK 210120Z AUTO 08008KT 9999 BKN089/// 14/08 Q1017

Closest aviation forecast (TAF) to Sølager Airfiield

Closest forecast is Dortmund Airport, 306.9 nm (568.3 km) SSW.

2024/05/20 21:39 (retrieved 4 hours ago)

TAF EDLW 202130Z 2021/2118 CNL